createdAt,value
2019-01-12T00:00:54.973Z,-3.10
2019-01-12T00:03:23.746Z,-3.10
2019-01-12T00:05:52.406Z,-3.20
2019-01-12T00:08:21.081Z,-3.40
2019-01-12T00:10:49.761Z,-3.50
2019-01-12T00:13:18.444Z,-3.50
2019-01-12T00:15:47.186Z,-3.70
2019-01-12T00:18:15.821Z,-3.70
2019-01-12T00:20:44.468Z,-3.80
2019-01-12T00:23:13.132Z,-3.70
2019-01-12T00:25:41.788Z,-3.90
2019-01-12T00:28:10.518Z,-3.90
2019-01-12T00:30:39.180Z,-3.90
2019-01-12T00:33:07.863Z,-4.00
2019-01-12T00:35:36.530Z,-4.00
2019-01-12T00:38:05.198Z,-4.00
2019-01-12T00:40:33.891Z,-4.00
2019-01-12T00:43:03.010Z,-4.00
2019-01-12T00:45:33.708Z,-4.10
2019-01-12T00:48:02.470Z,-4.10
2019-01-12T00:50:31.108Z,-4.10
2019-01-12T00:52:59.782Z,-4.10
2019-01-12T00:55:28.421Z,-4.10
2019-01-12T00:57:57.101Z,-4.10
2019-01-12T01:00:25.754Z,-4.10
2019-01-12T01:02:54.417Z,-4.00
2019-01-12T01:05:23.099Z,-4.10
2019-01-12T01:07:51.748Z,-4.10
2019-01-12T01:10:21.620Z,-4.10
2019-01-12T01:12:52.766Z,-4.10
2019-01-12T01:15:21.404Z,-4.10
2019-01-12T01:17:50.077Z,-4.00
2019-01-12T01:20:18.744Z,-4.10
2019-01-12T01:22:47.450Z,-4.20
2019-01-12T01:25:16.111Z,-4.30
2019-01-12T01:27:44.780Z,-4.30
2019-01-12T01:30:18.371Z,-4.50
2019-01-12T01:32:47.511Z,-4.50
2019-01-12T01:35:17.742Z,-4.50
2019-01-12T01:37:46.393Z,-4.50
2019-01-12T01:40:16.564Z,-4.50
2019-01-12T01:42:45.219Z,-4.50
2019-01-12T01:45:15.364Z,-4.50
2019-01-12T01:47:44.008Z,-4.70
2019-01-12T01:50:13.963Z,-4.80
2019-01-12T01:52:42.637Z,-4.80
2019-01-12T01:55:11.313Z,-4.90
2019-01-12T01:57:40.054Z,-5.00
2019-01-12T02:00:16.109Z,-5.00
2019-01-12T02:02:44.746Z,-5.10
2019-01-12T02:05:13.507Z,-5.10
2019-01-12T02:07:42.182Z,-5.10
2019-01-12T02:10:16.516Z,-5.10
2019-01-12T02:12:45.227Z,-5.00
2019-01-12T02:15:15.487Z,-5.00
2019-01-12T02:17:44.142Z,-5.00
2019-01-12T02:20:12.807Z,-5.00
2019-01-12T02:22:41.441Z,-5.00
2019-01-12T02:25:10.988Z,-5.00
2019-01-12T02:27:39.692Z,-5.00
2019-01-12T02:30:21.952Z,-5.10
2019-01-12T02:32:50.595Z,-5.10
2019-01-12T02:35:19.266Z,-5.10
2019-01-12T02:37:47.913Z,-5.10
2019-01-12T02:40:16.568Z,-5.00
2019-01-12T02:42:45.282Z,-5.10
2019-01-12T02:45:14.144Z,-5.10
2019-01-12T02:47:42.784Z,-5.30
2019-01-12T02:50:12.647Z,-5.30
2019-01-12T02:52:41.315Z,-5.20
2019-01-12T02:55:09.993Z,-5.20
2019-01-12T02:57:38.671Z,-5.10
2019-01-12T03:00:10.781Z,-5.10
2019-01-12T03:02:39.480Z,-5.10
2019-01-12T03:05:08.272Z,-5.10
2019-01-12T03:07:36.932Z,-5.20
2019-01-12T03:10:08.459Z,-5.20
2019-01-12T03:12:37.111Z,-5.10
2019-01-12T03:15:08.589Z,-5.10
2019-01-12T03:17:37.552Z,-5.10
2019-01-12T03:20:11.970Z,-5.20
2019-01-12T03:22:40.625Z,-5.30
2019-01-12T03:25:17.126Z,-5.30
2019-01-12T03:27:39.688Z,-5.20
2019-01-12T03:30:11.667Z,-5.30
2019-01-12T03:32:40.326Z,-5.30
2019-01-12T03:35:08.967Z,-5.30
2019-01-12T03:37:37.681Z,-5.30
2019-01-12T03:40:09.589Z,-5.30
2019-01-12T03:42:38.241Z,-5.30
2019-01-12T03:45:09.442Z,-5.40
2019-01-12T03:47:39.655Z,-5.40
2019-01-12T03:50:11.792Z,-5.40
2019-01-12T03:52:40.439Z,-5.40
2019-01-12T03:55:09.095Z,-5.40
2019-01-12T03:57:37.782Z,-5.30
2019-01-12T04:00:15.277Z,-5.30
2019-01-12T04:02:45.144Z,-5.30
2019-01-12T04:05:13.812Z,-5.30
2019-01-12T04:07:45.234Z,-5.30
2019-01-12T04:10:14.437Z,-5.20
2019-01-12T04:12:43.145Z,-5.30
2019-01-12T04:15:13.297Z,-5.30
2019-01-12T04:17:42.029Z,-5.30
2019-01-12T04:20:12.865Z,-5.30
2019-01-12T04:22:41.535Z,-5.30
2019-01-12T04:25:10.253Z,-5.30
2019-01-12T04:27:38.938Z,-5.40
2019-01-12T04:30:10.860Z,-5.50
2019-01-12T04:32:39.516Z,-5.50
2019-01-12T04:35:08.147Z,-5.50
2019-01-12T04:37:36.813Z,-5.60
2019-01-12T04:40:13.871Z,-5.70
2019-01-12T04:42:42.616Z,-5.70
2019-01-12T04:45:11.246Z,-5.70
2019-01-12T04:47:39.901Z,-5.70
2019-01-12T04:50:11.311Z,-5.80
2019-01-12T04:52:39.984Z,-5.90
2019-01-12T04:55:08.653Z,-6.00
2019-01-12T04:57:37.315Z,-6.00
2019-01-12T05:00:09.036Z,-5.90
2019-01-12T05:02:37.749Z,-6.00
2019-01-12T05:05:06.453Z,-5.90
2019-01-12T05:07:35.130Z,-6.00
2019-01-12T05:10:04.605Z,-6.00
2019-01-12T05:12:33.282Z,-6.10
2019-01-12T05:15:01.977Z,-6.10
2019-01-12T05:17:30.661Z,-6.10
2019-01-12T05:19:59.332Z,-6.10
2019-01-12T05:22:28.046Z,-6.10
2019-01-12T05:24:56.697Z,-6.10
2019-01-12T05:27:25.454Z,-6.00
2019-01-12T05:29:54.175Z,-6.10
2019-01-12T05:32:22.833Z,-6.20
2019-01-12T05:34:51.544Z,-6.10
2019-01-12T05:37:20.206Z,-6.20
2019-01-12T05:39:48.873Z,-6.30
2019-01-12T05:42:17.540Z,-6.30
2019-01-12T05:44:46.242Z,-6.30
2019-01-12T05:47:14.912Z,-6.30
2019-01-12T05:49:43.559Z,-6.30
2019-01-12T05:52:12.270Z,-6.20
2019-01-12T05:54:40.933Z,-6.20
2019-01-12T05:57:09.622Z,-6.20
2019-01-12T05:59:38.282Z,-6.20
2019-01-12T06:02:06.962Z,-6.10
2019-01-12T06:04:35.616Z,-6.20
2019-01-12T06:07:04.274Z,-6.10
2019-01-12T06:09:33.948Z,-6.10
2019-01-12T06:12:02.589Z,-6.10
2019-01-12T06:14:31.259Z,-6.10
2019-01-12T06:16:59.921Z,-6.10
2019-01-12T06:19:28.604Z,-6.10
2019-01-12T06:21:57.266Z,-6.00
2019-01-12T06:24:25.959Z,-6.00
2019-01-12T06:26:54.615Z,-6.00
2019-01-12T06:29:23.304Z,-5.90
2019-01-12T06:31:52.014Z,-5.90
2019-01-12T06:34:21.894Z,-5.80
2019-01-12T06:36:50.576Z,-5.80
2019-01-12T06:39:19.239Z,-5.90
2019-01-12T06:41:47.901Z,-5.90
2019-01-12T06:44:18.588Z,-5.90
2019-01-12T06:46:47.234Z,-6.00
2019-01-12T06:49:15.929Z,-6.00
2019-01-12T06:51:44.586Z,-6.10
2019-01-12T06:54:25.537Z,-6.00
2019-01-12T06:56:45.465Z,-5.90
2019-01-12T06:59:14.168Z,-5.90
2019-01-12T07:01:42.921Z,-5.90
2019-01-12T07:04:11.643Z,-5.90
2019-01-12T07:06:42.715Z,-5.90
2019-01-12T07:09:11.381Z,-6.00
2019-01-12T07:11:40.039Z,-6.20
2019-01-12T07:14:08.729Z,-6.20
2019-01-12T07:16:41.376Z,-6.20
2019-01-12T07:19:10.063Z,-6.20
2019-01-12T07:21:38.801Z,-6.30
2019-01-12T07:24:07.723Z,-6.30
2019-01-12T07:26:36.714Z,-6.30
2019-01-12T07:29:07.030Z,-6.50
2019-01-12T07:31:37.553Z,-6.50
2019-01-12T07:34:06.536Z,-6.60
2019-01-12T07:36:35.189Z,-6.60
2019-01-12T07:39:11.715Z,-6.90
2019-01-12T07:41:35.869Z,-6.80
2019-01-12T07:44:04.574Z,-6.80
2019-01-12T07:46:33.236Z,-6.70
2019-01-12T07:49:01.952Z,-6.80
2019-01-12T07:51:36.410Z,-7.00
2019-01-12T07:54:05.069Z,-7.10
2019-01-12T07:56:33.792Z,-7.10
2019-01-12T07:59:02.505Z,-7.20
2019-01-12T08:01:31.189Z,-7.40
2019-01-12T08:04:01.424Z,-7.50
2019-01-12T08:06:30.927Z,-7.60
2019-01-12T08:08:59.752Z,-7.50
2019-01-12T08:11:28.401Z,-7.40
2019-01-12T08:13:58.813Z,-7.40
2019-01-12T08:16:27.498Z,-7.40
2019-01-12T08:18:57.329Z,-7.40
2019-01-12T08:21:28.182Z,-7.50
2019-01-12T08:23:56.848Z,-7.50
2019-01-12T08:26:31.189Z,-7.40
2019-01-12T08:28:55.968Z,-7.40
2019-01-12T08:31:24.630Z,-7.40
2019-01-12T08:33:56.332Z,-7.50
2019-01-12T08:36:24.993Z,-7.50
2019-01-12T08:38:53.659Z,-7.80
2019-01-12T08:41:22.322Z,-7.70
2019-01-12T08:43:51.140Z,-7.60
2019-01-12T08:46:19.835Z,-7.50
2019-01-12T08:48:48.701Z,-7.50
2019-01-12T08:51:20.515Z,-7.40
2019-01-12T08:53:49.231Z,-7.30
2019-01-12T08:56:24.726Z,-7.30
2019-01-12T08:58:54.689Z,-7.30
2019-01-12T09:01:28.039Z,-7.50
2019-01-12T09:03:56.776Z,-7.50
2019-01-12T09:06:33.918Z,-7.60
2019-01-12T09:09:02.600Z,-7.60
2019-01-12T09:11:31.341Z,-7.60
2019-01-12T09:14:00.106Z,-7.50
2019-01-12T09:16:30.314Z,-7.40
2019-01-12T09:19:00.545Z,-7.40
2019-01-12T09:21:29.436Z,-7.30
2019-01-12T09:23:58.901Z,-7.10
2019-01-12T09:26:27.612Z,-7.10
2019-01-12T09:28:56.510Z,-6.90
2019-01-12T09:31:25.223Z,-6.80
2019-01-12T09:33:53.906Z,-7.00
2019-01-12T09:36:26.750Z,-7.00
2019-01-12T09:38:55.494Z,-6.90
2019-01-12T09:41:30.189Z,-6.90
2019-01-12T09:46:53.496Z,-7.00
2019-01-12T09:49:26.198Z,-7.10
2019-01-12T09:51:56.400Z,-7.00
2019-01-12T09:54:25.083Z,-7.00
2019-01-12T09:56:58.029Z,-7.00
2019-01-12T09:59:27.070Z,-7.10
2019-01-12T10:01:57.331Z,-7.20
2019-01-12T10:04:26.038Z,-7.20
2019-01-12T10:06:54.770Z,-7.10
2019-01-12T10:09:23.425Z,-7.10
2019-01-12T10:11:52.164Z,-7.10
2019-01-12T10:14:23.623Z,-7.10
2019-01-12T10:16:52.296Z,-6.90
2019-01-12T10:19:25.238Z,-6.90
2019-01-12T10:21:55.624Z,-6.90
2019-01-12T10:24:24.364Z,-6.80
2019-01-12T10:26:58.549Z,-6.80
2019-01-12T10:29:26.259Z,-6.90
2019-01-12T10:32:18.364Z,-6.90
2019-01-12T10:34:57.730Z,-6.90
2019-01-12T10:37:26.446Z,-6.80
2019-01-12T10:40:35.701Z,-6.90
2019-01-12T10:43:04.241Z,-6.80
2019-01-12T10:45:34.516Z,-6.60
2019-01-12T10:51:44.452Z,-6.40
2019-01-12T10:54:28.657Z,-6.20
2019-01-12T10:56:57.358Z,-6.20
2019-01-12T10:59:39.845Z,-6.30
2019-01-12T11:06:20.551Z,-6.30
2019-01-12T11:10:04.141Z,-6.10
2019-01-12T11:11:36.614Z,-6.10
2019-01-12T11:16:56.493Z,-6.20
2019-01-12T11:19:26.713Z,-6.20
2019-01-12T11:21:58.156Z,-6.40
2019-01-12T11:24:26.799Z,-6.50
2019-01-12T11:26:55.538Z,-6.40
2019-01-12T11:29:26.937Z,-6.50
2019-01-12T11:31:55.689Z,-6.50
2019-01-12T11:34:24.449Z,-6.30
2019-01-12T11:36:53.141Z,-6.20
2019-01-12T11:39:24.742Z,-6.20
2019-01-12T11:41:53.397Z,-6.10
2019-01-12T11:44:22.097Z,-6.10
2019-01-12T11:46:50.951Z,-5.40
2019-01-12T11:49:19.760Z,-4.70
2019-01-12T11:51:48.548Z,-4.40
2019-01-12T11:54:17.277Z,-4.50
2019-01-12T11:56:46.152Z,-4.60
2019-01-12T11:59:14.865Z,-5.30
2019-01-12T12:01:43.597Z,-5.60
2019-01-12T12:04:12.281Z,-5.90
2019-01-12T12:06:41.026Z,-6.10
2019-01-12T12:09:09.701Z,-6.10
2019-01-12T12:11:38.468Z,-6.20
2019-01-12T12:14:07.132Z,-6.30
2019-01-12T12:16:35.819Z,-6.30
2019-01-12T12:19:04.562Z,-6.30
2019-01-12T12:21:33.232Z,-6.30
2019-01-12T12:24:01.936Z,-6.20
2019-01-12T12:26:30.629Z,-6.20
2019-01-12T12:29:00.921Z,-6.10
2019-01-12T12:31:29.602Z,-6.10
2019-01-12T12:33:58.354Z,-6.30
2019-01-12T12:36:27.051Z,-6.30
2019-01-12T12:38:55.839Z,-6.30
2019-01-12T12:41:24.638Z,-6.20
2019-01-12T12:43:53.304Z,-6.10
2019-01-12T12:46:22.047Z,-6.10
2019-01-12T12:48:50.800Z,-6.10
2019-01-12T12:51:19.680Z,-6.10
2019-01-12T12:53:48.353Z,-6.10
2019-01-12T12:56:17.018Z,-6.10
2019-01-12T12:58:45.718Z,-6.10
2019-01-12T13:01:15.325Z,-6.10
2019-01-12T13:03:44.010Z,-6.00
2019-01-12T13:06:14.209Z,-5.90
2019-01-12T13:08:48.456Z,-5.90
2019-01-12T13:11:14.957Z,-6.00
2019-01-12T13:13:45.570Z,-6.00
2019-01-12T13:16:16.430Z,-6.00
2019-01-12T13:18:45.131Z,-6.00
2019-01-12T13:21:14.869Z,-6.20
2019-01-12T13:23:44.168Z,-6.20
2019-01-12T13:29:30.646Z,-6.10
2019-01-12T13:32:08.600Z,-6.10
2019-01-12T13:34:37.250Z,-6.10
2019-01-12T13:37:07.436Z,-6.10
2019-01-12T13:39:49.284Z,-6.00
2019-01-12T13:42:32.024Z,-6.00
2019-01-12T13:45:01.351Z,-6.00
2019-01-12T13:47:30.160Z,-6.00
2019-01-12T13:49:58.897Z,-6.00
2019-01-12T13:52:27.525Z,-6.00
2019-01-12T13:54:56.738Z,-6.00
2019-01-12T13:57:25.382Z,-6.00
2019-01-12T13:59:54.552Z,-6.00
2019-01-12T14:02:23.331Z,-5.90
2019-01-12T14:04:52.988Z,-6.00
2019-01-12T14:07:21.782Z,-6.00
2019-01-12T14:09:50.576Z,-5.90
2019-01-12T14:12:20.137Z,-5.80
2019-01-12T14:14:49.075Z,-5.80
2019-01-12T14:17:18.870Z,-5.80
2019-01-12T14:19:48.097Z,-5.70
2019-01-12T14:22:16.934Z,-5.70
2019-01-12T14:24:47.256Z,-5.70
2019-01-12T14:27:17.387Z,-5.60
2019-01-12T14:30:15.426Z,-5.60
2019-01-12T14:32:38.702Z,-5.60
2019-01-12T14:35:13.698Z,-5.60
2019-01-12T14:37:45.408Z,-5.60
2019-01-12T14:40:17.200Z,-5.50
2019-01-12T14:42:47.091Z,-5.50
2019-01-12T14:45:21.748Z,-5.40
2019-01-12T14:47:52.532Z,-5.40
2019-01-12T14:50:21.837Z,-5.40
2019-01-12T14:52:50.495Z,-5.30
2019-01-12T14:55:22.305Z,-5.30
2019-01-12T14:58:02.038Z,-5.30
2019-01-12T15:00:30.430Z,-5.40
2019-01-12T15:03:00.942Z,-5.40
2019-01-12T15:05:30.074Z,-5.40
2019-01-12T15:08:00.144Z,-5.40
2019-01-12T15:10:29.554Z,-5.40
2019-01-12T15:13:04.893Z,-5.40
2019-01-12T15:15:37.240Z,-5.40
2019-01-12T15:18:07.303Z,-5.30
2019-01-12T15:20:37.627Z,-5.30
2019-01-12T15:23:10.574Z,-5.30
2019-01-12T15:25:39.667Z,-5.20
2019-01-12T15:28:09.466Z,-5.20
2019-01-12T15:30:40.000Z,-5.10
2019-01-12T15:33:08.837Z,-5.00
2019-01-12T15:35:37.776Z,-5.00
2019-01-12T15:38:08.432Z,-4.90
2019-01-12T15:40:38.691Z,-4.90
2019-01-12T15:43:07.523Z,-4.80
2019-01-12T15:45:41.111Z,-4.70
2019-01-12T15:48:09.940Z,-4.70
2019-01-12T15:50:39.000Z,-4.60
2019-01-12T15:53:09.392Z,-4.50
2019-01-12T15:55:38.936Z,-4.40
2019-01-12T16:01:10.422Z,-4.30
2019-01-12T16:03:42.738Z,-4.30
2019-01-12T16:06:14.315Z,-4.30
2019-01-12T16:08:44.653Z,-4.20
2019-01-12T16:11:24.298Z,-4.10
2019-01-12T16:13:48.795Z,-4.10
2019-01-12T16:16:25.229Z,-4.10
2019-01-12T16:19:02.377Z,-4.00
2019-01-12T16:24:24.149Z,-3.90
2019-01-12T16:29:48.391Z,-3.90
2019-01-12T16:32:20.011Z,-3.90
2019-01-12T16:34:48.955Z,-3.90
2019-01-12T16:40:17.092Z,-3.90
2019-01-12T16:42:51.288Z,-3.80
2019-01-12T16:45:24.293Z,-3.80
2019-01-12T16:50:55.178Z,-3.80
2019-01-12T16:53:47.938Z,-3.70
2019-01-12T17:00:29.759Z,-3.70
2019-01-12T17:01:55.875Z,-3.70
2019-01-12T17:04:24.538Z,-3.70
2019-01-12T18:41:59.022Z,-2.90
2019-01-12T18:44:32.588Z,-2.80
2019-01-12T18:46:58.278Z,-2.80
2019-01-12T18:49:50.390Z,-2.80
2019-01-12T18:52:20.619Z,-2.80
2019-01-12T18:54:49.379Z,-2.80
2019-01-12T18:57:18.042Z,-2.80
2019-01-12T18:59:54.467Z,-2.70
2019-01-12T19:02:21.608Z,-2.70
2019-01-12T19:04:50.476Z,-2.60
2019-01-12T19:07:19.293Z,-2.60
2019-01-12T19:09:47.974Z,-2.60
2019-01-12T19:12:17.363Z,-2.60
2019-01-12T19:14:47.183Z,-2.60
2019-01-12T19:17:15.882Z,-2.60
2019-01-12T19:19:44.646Z,-2.50
2019-01-12T19:22:13.365Z,-2.50
2019-01-12T19:24:43.445Z,-2.50
2019-01-12T19:27:12.310Z,-2.50
2019-01-12T19:29:41.009Z,-2.50
2019-01-12T19:32:11.259Z,-2.50
2019-01-12T19:34:39.973Z,-2.60
2019-01-12T19:37:08.666Z,-2.50
2019-01-12T19:39:37.341Z,-2.50
2019-01-12T19:42:06.088Z,-2.50
2019-01-12T19:44:36.354Z,-2.50
2019-01-12T19:47:05.101Z,-2.50
2019-01-12T19:49:36.962Z,-2.50
2019-01-12T19:52:05.749Z,-2.40
2019-01-12T19:54:34.411Z,-2.50
2019-01-12T19:57:04.769Z,-2.50
2019-01-12T19:59:34.490Z,-2.50
2019-01-12T20:02:03.188Z,-2.50
2019-01-12T20:04:31.805Z,-2.50
2019-01-12T20:07:00.615Z,-2.40
2019-01-12T20:09:36.929Z,-2.40
2019-01-12T20:12:05.852Z,-2.40
2019-01-12T20:14:34.588Z,-2.40
2019-01-12T20:17:04.906Z,-2.40
2019-01-12T20:19:33.752Z,-2.40
2019-01-12T20:22:04.002Z,-2.50
2019-01-12T20:24:39.870Z,-2.50
2019-01-12T20:27:08.551Z,-2.50
2019-01-12T20:29:41.746Z,-2.40
2019-01-12T20:32:25.313Z,-2.50
2019-01-12T20:34:54.533Z,-2.50
2019-01-12T20:37:41.254Z,-2.50
2019-01-12T20:40:15.640Z,-2.50
2019-01-12T20:42:47.427Z,-2.50
2019-01-12T20:45:47.548Z,-2.50
2019-01-12T20:48:37.312Z,-2.50
2019-01-12T20:51:14.793Z,-2.50
2019-01-12T20:54:11.161Z,-2.50
2019-01-12T20:57:05.423Z,-2.50
2019-01-12T20:59:54.843Z,-2.50
2019-01-12T21:02:45.558Z,-2.50
2019-01-12T21:05:29.097Z,-2.50
2019-01-12T21:08:08.190Z,-2.50
2019-01-12T21:10:48.810Z,-2.50
2019-01-12T21:13:41.234Z,-2.50
2019-01-12T21:16:16.142Z,-2.60
2019-01-12T21:18:44.818Z,-2.50
2019-01-12T21:21:15.286Z,-2.50
2019-01-12T21:23:43.957Z,-2.50
2019-01-12T21:26:17.748Z,-2.50
2019-01-12T21:28:46.589Z,-2.40
2019-01-12T21:31:15.293Z,-2.50
2019-01-12T21:33:43.992Z,-2.50
2019-01-12T21:36:12.680Z,-2.50
2019-01-12T21:38:41.377Z,-2.50
2019-01-12T21:41:10.085Z,-2.50
2019-01-12T21:43:38.811Z,-2.40
2019-01-12T21:46:07.494Z,-2.40
2019-01-12T21:48:36.333Z,-2.40
2019-01-12T21:51:05.020Z,-2.50
2019-01-12T21:53:33.638Z,-2.40
2019-01-12T21:56:02.354Z,-2.50
2019-01-12T21:58:34.120Z,-2.50
2019-01-12T22:01:04.386Z,-2.50
2019-01-12T22:03:34.693Z,-2.50
2019-01-12T22:06:06.260Z,-2.40
2019-01-12T22:09:12.960Z,-2.40
2019-01-12T22:11:44.351Z,-2.40
2019-01-12T22:14:13.552Z,-2.40
2019-01-12T22:16:42.265Z,-2.40
2019-01-12T22:19:13.960Z,-2.10
2019-01-12T22:21:42.608Z,-1.60
2019-01-12T22:24:13.966Z,-1.30
2019-01-12T22:26:42.665Z,-1.30
2019-01-12T22:29:11.340Z,-1.10
2019-01-12T22:31:40.006Z,-1.20
2019-01-12T22:34:08.719Z,-1.50
2019-01-12T22:36:38.566Z,-1.70
2019-01-12T22:39:07.820Z,-2.00
2019-01-12T22:41:36.645Z,-2.00
2019-01-12T22:44:05.319Z,-2.10
2019-01-12T22:46:34.050Z,-2.20
2019-01-12T22:49:02.707Z,-2.10
2019-01-12T22:51:31.354Z,-2.20
2019-01-12T22:54:00.029Z,-2.30
2019-01-12T22:56:28.764Z,-2.30
2019-01-12T22:58:57.496Z,-2.30
2019-01-12T23:01:29.256Z,-2.30
2019-01-12T23:03:57.957Z,-2.30
2019-01-12T23:06:26.622Z,-2.30
2019-01-12T23:08:55.305Z,-2.30
2019-01-12T23:11:23.980Z,-2.30
2019-01-12T23:13:52.686Z,-2.30
2019-01-12T23:16:21.356Z,-2.40
2019-01-12T23:18:50.074Z,-2.30
2019-01-12T23:21:18.733Z,-2.40
2019-01-12T23:23:50.107Z,-2.30
2019-01-12T23:26:18.768Z,-2.40
2019-01-12T23:28:47.565Z,-2.40
2019-01-12T23:31:17.519Z,-2.40
2019-01-12T23:33:52.258Z,-2.40
2019-01-12T23:36:20.953Z,-2.40
2019-01-12T23:38:49.640Z,-2.30
2019-01-12T23:41:18.370Z,-2.30
2019-01-12T23:43:47.057Z,-2.30
2019-01-12T23:46:15.747Z,-2.30
2019-01-12T23:48:44.735Z,-2.30
2019-01-12T23:51:40.768Z,-2.30
2019-01-12T23:54:09.412Z,-2.30
2019-01-12T23:56:38.093Z,-2.30
2019-01-12T23:59:06.813Z,-2.30
